Time;durP1;ratioP1;P1;durP2;ratioP2;P2;SDS_P1;SDS_P2;PMS_P1;PMS_P2;Temp;Humidity;BMP_temperature;BMP_pressure;BME280_temperature;BME280_humidity;BME280_pressure;Samples;Min_cycle;Max_cycle;Signal;HPM_P1;HPM_P2
2022/12/09 00:00:53;;;;;;;282.77;23.58;;;-1.60;99.90;;;;;;5057525;28;20044;-61
2022/12/09 00:03:20;;;;;;;282.67;22.27;;;-1.60;99.90;;;;;;5054820;28;20550;-61
2022/12/09 00:05:49;;;;;;;301.38;25.13;;;-1.70;99.90;;;;;;5057079;28;20488;-63
2022/12/09 00:08:17;;;;;;;296.92;23.45;;;-1.70;99.90;;;;;;5075146;28;20119;-62
2022/12/09 00:10:44;;;;;;;330.45;28.52;;;-1.70;99.90;;;;;;5072133;28;20110;-62
2022/12/09 00:13:11;;;;;;;324.23;24.17;;;-1.70;99.90;;;;;;5074795;28;20086;-62
2022/12/09 00:15:41;;;;;;;191.63;18.98;;;-1.70;99.90;;;;;;5072669;28;20087;-61
2022/12/09 00:18:08;;;;;;;259.65;22.52;;;-1.70;99.90;;;;;;5054918;28;20041;-61
2022/12/09 00:20:35;;;;;;;253.95;21.42;;;-1.80;99.90;;;;;;5074639;28;20067;-62
2022/12/09 00:23:02;;;;;;;362.65;26.52;;;-1.70;99.90;;;;;;5074399;28;20468;-62
2022/12/09 00:25:30;;;;;;;199.50;20.48;;;-1.80;99.90;;;;;;5066029;28;20045;-60
2022/12/09 00:27:57;;;;;;;251.05;21.73;;;-1.80;99.90;;;;;;5068782;28;20400;-61
2022/12/09 00:30:24;;;;;;;367.42;33.22;;;-1.80;99.90;;;;;;5074481;28;20044;-60
2022/12/09 00:32:51;;;;;;;135.90;16.00;;;-1.80;99.90;;;;;;5055778;28;20618;-61
2022/12/09 00:35:18;;;;;;;104.50;14.15;;;-1.80;99.90;;;;;;5057119;28;20060;-61
2022/12/09 00:37:45;;;;;;;97.75;14.52;;;-1.70;99.90;;;;;;5074449;28;20098;-62
2022/12/09 00:40:13;;;;;;;41.13;11.30;;;-1.70;99.90;;;;;;5071823;28;20052;-62
2022/12/09 00:42:41;;;;;;;64.05;12.52;;;-1.60;99.90;;;;;;5070208;28;20496;-62
2022/12/09 00:45:08;;;;;;;28.90;11.40;;;-1.40;99.90;;;;;;5056933;28;20067;-61
2022/12/09 00:47:35;;;;;;;23.25;12.90;;;-1.50;99.90;;;;;;5073461;28;20085;-61
2022/12/09 00:50:03;;;;;;;15.50;9.55;;;-1.50;99.90;;;;;;5072217;28;20268;-61
2022/12/09 00:52:30;;;;;;;16.15;10.00;;;-1.50;99.90;;;;;;5073278;28;20408;-61
2022/12/09 00:54:57;;;;;;;16.70;9.85;;;-1.60;99.90;;;;;;5055451;28;20040;-61
2022/12/09 00:57:24;;;;;;;17.58;10.50;;;-1.70;99.90;;;;;;5055424;28;20094;-61
2022/12/09 00:59:52;;;;;;;16.85;10.18;;;-1.70;99.90;;;;;;5055580;28;20098;-62
2022/12/09 01:02:19;;;;;;;15.07;9.75;;;-1.80;99.90;;;;;;5073678;28;20063;-61
2022/12/09 01:04:45;;;;;;;17.60;9.27;;;-1.80;99.90;;;;;;5055999;28;20082;-62
2022/12/09 01:07:12;;;;;;;16.80;10.73;;;-1.90;99.90;;;;;;5055074;28;20056;-61
2022/12/09 01:09:39;;;;;;;14.73;9.68;;;-2.00;99.90;;;;;;5053753;28;20059;-61
2022/12/09 01:12:06;;;;;;;14.98;9.55;;;-2.00;99.90;;;;;;5071452;28;20063;-61
2022/12/09 01:14:33;;;;;;;14.10;8.90;;;-2.10;99.90;;;;;;5073024;28;20048;-61
2022/12/09 01:17:01;;;;;;;17.02;9.82;;;-2.10;99.90;;;;;;5073084;28;20514;-60
2022/12/09 01:19:28;;;;;;;17.25;11.02;;;-2.10;99.90;;;;;;5055174;28;20107;-61
2022/12/09 01:21:55;;;;;;;15.95;10.80;;;-2.10;99.90;;;;;;5072959;28;20053;-61
2022/12/09 01:24:22;;;;;;;20.02;11.25;;;-2.20;99.90;;;;;;5073469;28;20049;-62
2022/12/09 01:26:49;;;;;;;17.10;11.02;;;-2.20;99.90;;;;;;5055411;28;20048;-62
2022/12/09 01:29:16;;;;;;;16.10;10.20;;;-2.10;99.90;;;;;;5054797;28;20064;-60
2022/12/09 01:31:43;;;;;;;20.00;11.50;;;-2.10;99.90;;;;;;5073288;28;20072;-61
2022/12/09 01:34:11;;;;;;;20.90;11.95;;;-2.00;99.90;;;;;;5055520;28;20412;-61
2022/12/09 01:36:38;;;;;;;21.05;10.70;;;-1.90;99.90;;;;;;5072746;28;20051;-60
2022/12/09 01:39:06;;;;;;;18.05;11.13;;;-1.90;99.90;;;;;;5052800;28;20106;-62
2022/12/09 01:41:33;;;;;;;20.13;11.48;;;-1.90;99.90;;;;;;5072898;28;20105;-62
2022/12/09 01:44:18;;;;;;;17.17;10.25;;;-1.80;99.90;;;;;;5050282;28;20476;-62
2022/12/09 01:46:46;;;;;;;19.13;11.02;;;-1.80;99.90;;;;;;5054076;28;20052;-62
2022/12/09 01:49:19;;;;;;;19.05;10.43;;;-1.80;99.90;;;;;;5070675;28;20045;-62
2022/12/09 01:51:51;;;;;;;18.33;10.93;;;-1.80;99.90;;;;;;5054567;28;20569;-62
2022/12/09 01:54:19;;;;;;;20.15;10.88;;;-1.80;99.90;;;;;;5055237;28;20070;-62
2022/12/09 01:56:46;;;;;;;20.05;10.98;;;-1.90;99.90;;;;;;5054427;28;20394;-62
2022/12/09 01:59:14;;;;;;;20.25;11.75;;;-1.90;99.90;;;;;;5071600;28;20048;-62
2022/12/09 02:01:44;;;;;;;24.13;11.05;;;-2.00;99.90;;;;;;5072620;28;20049;-61
2022/12/09 02:04:11;;;;;;;22.85;10.73;;;-2.00;99.90;;;;;;5054538;28;20114;-61
2022/12/09 02:06:39;;;;;;;29.02;11.13;;;-2.00;99.90;;;;;;5072422;28;20044;-61
2022/12/09 02:09:07;;;;;;;20.13;11.25;;;-2.10;99.90;;;;;;5052279;28;20055;-62
2022/12/09 02:11:46;;;;;;;20.27;12.10;;;-2.00;99.90;;;;;;5051992;28;20059;-62
2022/12/09 02:14:19;;;;;;;16.90;10.30;;;-2.10;99.90;;;;;;5071562;28;20052;-61
2022/12/09 02:16:55;;;;;;;20.08;10.63;;;-2.10;99.90;;;;;;5072656;28;20052;-61
2022/12/09 02:19:40;;;;;;;20.95;11.13;;;-2.20;99.90;;;;;;5072284;28;20048;-61
2022/12/09 02:22:15;;;;;;;18.13;10.60;;;-2.20;99.90;;;;;;5053942;28;20098;-61
2022/12/09 02:24:51;;;;;;;18.17;10.32;;;-2.20;99.90;;;;;;5071858;28;20109;-61
2022/12/09 02:27:24;;;;;;;19.10;10.55;;;-2.30;99.90;;;;;;5072224;28;20051;-62
2022/12/09 02:30:01;;;;;;;16.55;10.90;;;-2.30;99.90;;;;;;5072280;28;20048;-61
2022/12/09 02:32:51;;;;;;;21.42;10.45;;;-2.30;99.90;;;;;;5071374;28;20047;-61
2022/12/09 02:35:24;;;;;;;19.45;11.55;;;-2.30;99.90;;;;;;5070659;28;20102;-62
2022/12/09 02:37:54;;;;;;;21.70;10.95;;;-2.40;99.90;;;;;;5072050;28;20408;-62
2022/12/09 02:40:25;;;;;;;19.77;10.07;;;-2.40;99.90;;;;;;5072180;28;20044;-62
2022/12/09 02:42:53;;;;;;;17.95;9.82;;;-2.40;99.90;;;;;;5054105;28;20052;-61
2022/12/09 02:45:22;;;;;;;16.70;10.13;;;-2.50;99.90;;;;;;5071645;28;20049;-60
2022/12/09 02:47:52;;;;;;;18.58;10.85;;;-2.40;99.90;;;;;;5071925;28;20049;-61
2022/12/09 02:50:23;;;;;;;17.73;10.88;;;-2.40;99.90;;;;;;5067925;28;20041;-61
2022/12/09 02:52:52;;;;;;;18.73;10.45;;;-2.40;99.90;;;;;;5051101;28;20083;-60
2022/12/09 02:55:22;;;;;;;19.25;9.70;;;-2.40;99.90;;;;;;5071481;28;20412;-61
2022/12/09 02:57:56;;;;;;;18.13;9.30;;;-2.40;99.90;;;;;;5053963;28;20055;-62
2022/12/09 03:00:23;;;;;;;18.95;9.82;;;-2.50;99.90;;;;;;5051698;28;20056;-61
2022/12/09 03:02:54;;;;;;;18.58;10.48;;;-2.40;99.90;;;;;;5071679;28;20040;-61
2022/12/09 03:05:31;;;;;;;21.13;10.25;;;-2.50;99.90;;;;;;5054200;28;20064;-61
2022/12/09 03:08:06;;;;;;;19.27;9.93;;;-2.50;99.90;;;;;;5071324;28;20044;-61
2022/12/09 03:10:38;;;;;;;19.90;10.70;;;-2.50;99.90;;;;;;5053672;28;20055;-62
2022/12/09 03:13:10;;;;;;;21.75;10.93;;;-2.50;99.90;;;;;;5071232;28;20491;-62
2022/12/09 03:15:41;;;;;;;21.85;11.05;;;-2.40;99.90;;;;;;5071815;28;20503;-62
2022/12/09 03:18:13;;;;;;;22.30;10.95;;;-2.40;99.90;;;;;;5053526;28;20045;-62
2022/12/09 03:20:43;;;;;;;18.13;10.32;;;-2.40;99.90;;;;;;5069816;28;20049;-62
2022/12/09 03:23:15;;;;;;;18.77;10.27;;;-2.40;99.90;;;;;;5057254;28;20106;-62
2022/12/09 03:25:45;;;;;;;18.27;10.38;;;-2.40;99.90;;;;;;5056071;28;20051;-62
2022/12/09 03:28:17;;;;;;;19.92;10.07;;;-2.40;99.90;;;;;;5074906;28;20047;-61
2022/12/09 03:30:45;;;;;;;21.20;10.77;;;-2.40;99.90;;;;;;5057923;28;20499;-62
2022/12/09 03:33:15;;;;;;;18.17;11.02;;;-2.20;99.90;;;;;;5055977;28;20052;-62
2022/12/09 03:35:49;;;;;;;19.20;11.00;;;-2.40;99.90;;;;;;5074969;28;20412;-62
2022/12/09 03:38:20;;;;;;;18.85;11.00;;;-2.30;99.90;;;;;;5056523;28;20056;-61
2022/12/09 03:40:57;;;;;;;23.60;11.90;;;-2.30;99.90;;;;;;5056228;28;20052;-62
2022/12/09 03:43:28;;;;;;;21.35;11.73;;;-2.20;99.90;;;;;;5074947;28;20369;-61
2022/12/09 03:45:57;;;;;;;18.02;10.38;;;-2.20;99.90;;;;;;5075529;28;20105;-61
2022/12/09 03:48:24;;;;;;;24.33;10.73;;;-2.10;99.90;;;;;;5066903;28;20052;-61
2022/12/09 03:50:58;;;;;;;21.85;10.52;;;-2.20;99.90;;;;;;5075145;28;20050;-62
2022/12/09 03:53:32;;;;;;;23.65;11.23;;;-2.10;99.90;;;;;;5071999;28;20045;-62
2022/12/09 03:56:06;;;;;;;20.92;11.45;;;-2.20;99.90;;;;;;5074532;28;20053;-61
2022/12/09 03:58:35;;;;;;;22.38;11.15;;;-2.20;99.90;;;;;;5057388;28;20044;-62
2022/12/09 04:01:03;;;;;;;19.77;11.82;;;-2.20;99.90;;;;;;5057816;28;20056;-61
2022/12/09 04:03:30;;;;;;;22.63;10.82;;;-2.20;99.90;;;;;;5056910;28;20052;-60
2022/12/09 04:05:58;;;;;;;21.88;10.85;;;-2.20;99.90;;;;;;5057462;28;20057;-61
2022/12/09 04:08:25;;;;;;;24.60;11.70;;;-2.30;99.90;;;;;;5056826;28;20040;-61
2022/12/09 04:10:52;;;;;;;19.80;10.60;;;-2.30;99.90;;;;;;5072359;28;20048;-61
2022/12/09 04:13:19;;;;;;;20.20;11.45;;;-2.30;99.90;;;;;;5057317;28;20071;-61
2022/12/09 04:15:46;;;;;;;25.27;12.27;;;-2.30;99.90;;;;;;5074988;28;20045;-61
2022/12/09 04:18:12;;;;;;;22.30;11.13;;;-2.30;99.90;;;;;;5073642;28;20052;-61
2022/12/09 04:20:39;;;;;;;22.63;12.02;;;-2.30;99.90;;;;;;5075024;28;20055;-61
2022/12/09 04:23:08;;;;;;;29.98;12.23;;;-2.30;99.90;;;;;;5056707;28;20508;-61
2022/12/09 04:25:36;;;;;;;24.55;12.75;;;-2.30;99.90;;;;;;5074130;28;20048;-61
2022/12/09 04:28:03;;;;;;;21.90;12.15;;;-2.30;99.90;;;;;;5074345;28;20481;-61
2022/12/09 04:30:30;;;;;;;21.65;10.57;;;-2.30;99.90;;;;;;5056595;28;20056;-61
2022/12/09 04:32:59;;;;;;;22.40;10.95;;;-2.30;99.90;;;;;;5069816;28;20455;-61
2022/12/09 04:35:26;;;;;;;19.65;10.90;;;-2.40;99.90;;;;;;5056685;28;20072;-61
2022/12/09 04:37:53;;;;;;;23.42;11.57;;;-2.40;99.90;;;;;;5056433;28;20049;-62
2022/12/09 04:40:21;;;;;;;23.17;12.43;;;-2.40;99.90;;;;;;5055128;28;20052;-62
2022/12/09 04:42:48;;;;;;;27.63;11.73;;;-2.30;99.90;;;;;;5056606;28;20052;-61
2022/12/09 04:45:15;;;;;;;21.58;11.18;;;-0.80;99.90;;;;;;5056105;28;20052;-62
2022/12/09 04:47:42;;;;;;;22.80;13.27;;;-2.40;99.90;;;;;;5074093;28;20113;-62
2022/12/09 04:50:10;;;;;;;24.58;12.55;;;-2.40;99.90;;;;;;5055990;28;20044;-62
2022/12/09 04:52:36;;;;;;;22.88;12.05;;;-2.40;99.90;;;;;;5055550;28;20052;-62
2022/12/09 04:55:04;;;;;;;21.20;11.15;;;-2.50;99.90;;;;;;5056069;28;20048;-61
2022/12/09 04:57:32;;;;;;;26.70;13.20;;;-2.50;99.90;;;;;;5055824;28;20056;-62
2022/12/09 04:59:59;;;;;;;22.02;11.75;;;-2.50;99.90;;;;;;5073681;28;20374;-62
2022/12/09 05:02:26;;;;;;;20.58;12.45;;;-2.50;99.90;;;;;;5055546;28;20048;-62
2022/12/09 05:04:53;;;;;;;22.55;12.35;;;-2.50;99.90;;;;;;5073893;28;20052;-62
2022/12/09 05:07:20;;;;;;;19.52;11.32;;;-2.50;99.90;;;;;;5055652;28;20098;-62
2022/12/09 05:09:47;;;;;;;23.42;12.02;;;-2.50;99.90;;;;;;5072779;28;20044;-61
2022/12/09 05:12:13;;;;;;;22.35;12.82;;;-2.60;99.90;;;;;;5055801;28;20052;-62
2022/12/09 05:14:42;;;;;;;22.17;11.50;;;-2.60;99.90;;;;;;5072789;28;20045;-62
2022/12/09 05:17:09;;;;;;;20.50;12.35;;;-2.60;99.90;;;;;;5070253;28;20052;-60
2022/12/09 05:19:35;;;;;;;24.77;12.13;;;-2.60;99.90;;;;;;5039489;28;20451;-61
2022/12/09 05:22:02;;;;;;;23.98;12.23;;;-2.60;99.90;;;;;;5064866;28;20526;-62
2022/12/09 05:24:30;;;;;;;22.08;11.52;;;-2.60;99.90;;;;;;5065488;28;20086;-61
2022/12/09 05:26:57;;;;;;;24.60;13.13;;;-2.60;99.90;;;;;;5053592;28;20049;-61
2022/12/09 05:29:24;;;;;;;27.10;13.80;;;-2.60;99.90;;;;;;5067621;28;20063;-61
2022/12/09 05:31:53;;;;;;;22.80;13.27;;;-2.70;99.90;;;;;;5067387;28;20045;-61
2022/12/09 05:34:19;;;;;;;21.02;11.32;;;-2.60;99.90;;;;;;5067295;28;20056;-61
2022/12/09 05:36:46;;;;;;;23.50;12.23;;;-2.60;99.90;;;;;;5067663;28;20492;-61
2022/12/09 05:39:13;;;;;;;29.67;13.88;;;-2.60;99.90;;;;;;5066873;28;20435;-60
2022/12/09 05:41:42;;;;;;;30.35;13.35;;;-2.60;99.90;;;;;;5048183;28;20065;-61
2022/12/09 05:44:10;;;;;;;24.27;12.85;;;-2.50;99.90;;;;;;5066113;28;20064;-61
2022/12/09 05:46:37;;;;;;;25.77;13.65;;;-2.50;99.90;;;;;;5071541;28;20047;-61
2022/12/09 05:49:05;;;;;;;24.30;13.32;;;-2.50;99.90;;;;;;5043226;28;20064;-62
2022/12/09 05:51:32;;;;;;;23.48;13.18;;;-2.50;99.90;;;;;;5046120;28;20516;-61
2022/12/09 05:54:01;;;;;;;24.50;12.52;;;-2.50;99.90;;;;;;5046577;28;20049;-61
2022/12/09 05:56:28;;;;;;;23.85;13.15;;;-2.50;99.90;;;;;;5046710;28;20056;-61
2022/12/09 05:58:56;;;;;;;28.58;13.23;;;-2.50;99.90;;;;;;5038444;28;20052;-62
2022/12/09 06:01:24;;;;;;;25.92;12.95;;;-2.40;99.90;;;;;;5047439;28;20068;-62
2022/12/09 06:03:52;;;;;;;24.60;13.73;;;-2.50;99.90;;;;;;5044186;28;20067;-62
2022/12/09 06:06:26;;;;;;;26.00;14.07;;;-2.40;99.90;;;;;;5048439;28;20416;-62
2022/12/09 06:08:56;;;;;;;23.67;12.10;;;-2.40;99.90;;;;;;5047941;28;20049;-62
2022/12/09 06:11:23;;;;;;;23.63;12.30;;;-2.40;99.90;;;;;;5042724;28;20477;-62
2022/12/09 06:13:51;;;;;;;27.60;12.57;;;-2.40;99.90;;;;;;5043367;28;20060;-63
2022/12/09 06:16:19;;;;;;;26.02;13.52;;;-2.40;99.90;;;;;;5045026;28;20432;-62
2022/12/09 06:18:47;;;;;;;23.67;12.57;;;-2.40;99.90;;;;;;5045481;28;20064;-62
2022/12/09 06:21:17;;;;;;;24.20;12.52;;;-2.40;99.90;;;;;;5045753;28;20060;-62
2022/12/09 06:23:46;;;;;;;24.65;12.48;;;-2.40;99.90;;;;;;5045349;28;20041;-63
2022/12/09 06:26:19;;;;;;;22.33;12.88;;;-2.50;99.90;;;;;;5043388;28;20045;-63
2022/12/09 06:28:46;;;;;;;26.20;13.02;;;-2.50;99.90;;;;;;5043085;28;20504;-62
2022/12/09 06:31:13;;;;;;;22.83;12.55;;;-2.50;99.90;;;;;;5043056;28;20045;-62
2022/12/09 06:33:41;;;;;;;19.90;11.68;;;-2.50;99.90;;;;;;5047549;28;20049;-62
2022/12/09 06:36:08;;;;;;;25.00;12.52;;;-2.50;99.90;;;;;;5044196;28;20056;-62
2022/12/09 06:38:36;;;;;;;23.77;12.55;;;-2.50;99.90;;;;;;5046321;28;20064;-61
2022/12/09 06:41:07;;;;;;;26.92;12.93;;;-2.50;99.90;;;;;;5044578;28;20049;-62
2022/12/09 06:43:34;;;;;;;26.13;13.63;;;-2.50;99.90;;;;;;5044174;28;20051;-61
2022/12/09 06:46:01;;;;;;;24.23;12.00;;;-2.50;99.90;;;;;;5048475;28;20404;-62
2022/12/09 06:48:28;;;;;;;25.20;12.80;;;-2.50;99.90;;;;;;5061696;28;20072;-62
2022/12/09 06:50:55;;;;;;;24.38;12.52;;;-2.60;99.90;;;;;;5064511;28;20036;-62
2022/12/09 06:53:22;;;;;;;22.92;12.85;;;-2.60;99.90;;;;;;5064364;28;20056;-62
2022/12/09 06:55:49;;;;;;;21.27;12.38;;;-2.60;99.90;;;;;;5058778;28;20052;-62
2022/12/09 06:58:17;;;;;;;22.88;12.32;;;-2.60;99.90;;;;;;5042299;28;20052;-61
2022/12/09 07:00:44;;;;;;;23.05;11.90;;;-2.70;99.90;;;;;;5064511;28;20492;-63
2022/12/09 07:03:12;;;;;;;21.80;12.23;;;-2.60;99.90;;;;;;5063953;28;20047;-62
2022/12/09 07:05:39;;;;;;;22.42;11.70;;;-2.60;99.90;;;;;;5045845;28;20064;-61
2022/12/09 07:08:06;;;;;;;19.60;11.75;;;-2.60;99.90;;;;;;5065587;28;20067;-62
2022/12/09 07:10:33;;;;;;;20.98;11.50;;;-2.60;99.90;;;;;;5069260;28;20520;-63
2022/12/09 07:13:00;;;;;;;22.27;12.52;;;-2.60;99.90;;;;;;5063809;28;20048;-62
2022/12/09 07:15:28;;;;;;;25.50;12.07;;;-2.60;99.90;;;;;;5066196;28;20044;-62
2022/12/09 07:17:55;;;;;;;25.48;12.32;;;-2.50;99.90;;;;;;5066633;28;20083;-62
2022/12/09 07:20:22;;;;;;;26.83;13.40;;;-2.60;99.90;;;;;;5045578;28;20056;-62
2022/12/09 07:22:49;;;;;;;32.45;17.55;;;-2.60;99.90;;;;;;5047808;28;20404;-62
2022/12/09 07:25:16;;;;;;;31.60;15.70;;;-2.50;99.90;;;;;;5069877;28;20048;-62
2022/12/09 07:27:43;;;;;;;26.27;11.55;;;-2.50;99.90;;;;;;5052157;28;20117;-62
2022/12/09 07:30:11;;;;;;;30.33;14.90;;;-2.50;99.90;;;;;;5071080;28;20052;-62
2022/12/09 07:32:39;;;;;;;36.05;17.38;;;-2.50;99.90;;;;;;5053051;28;20053;-62
2022/12/09 07:35:06;;;;;;;31.83;15.90;;;-2.50;99.90;;;;;;5070744;28;20102;-62
2022/12/09 07:37:33;;;;;;;27.42;13.20;;;-2.60;99.90;;;;;;5053448;28;20074;-62
2022/12/09 07:40:00;;;;;;;35.25;17.60;;;-2.50;99.90;;;;;;5053035;28;20443;-62
2022/12/09 07:42:27;;;;;;;38.90;18.92;;;-2.60;99.90;;;;;;5069880;28;20063;-62
2022/12/09 07:44:54;;;;;;;27.27;14.98;;;-2.60;99.90;;;;;;5071271;28;20049;-63
2022/12/09 07:47:21;;;;;;;24.48;12.45;;;-2.50;99.90;;;;;;5053613;28;20412;-63
2022/12/09 07:49:49;;;;;;;26.02;12.27;;;-2.50;99.90;;;;;;5068675;28;20048;-62
2022/12/09 07:52:16;;;;;;;23.85;13.02;;;-2.50;99.90;;;;;;5070909;28;20048;-62
2022/12/09 07:54:43;;;;;;;25.90;13.10;;;-2.50;99.90;;;;;;5070544;28;20052;-62
2022/12/09 07:57:10;;;;;;;21.70;11.93;;;-2.50;99.90;;;;;;5053166;28;20056;-62
2022/12/09 07:59:37;;;;;;;23.88;12.43;;;-2.40;99.90;;;;;;5070981;28;20049;-62
2022/12/09 08:02:04;;;;;;;24.63;13.63;;;-2.40;99.90;;;;;;5068827;28;20040;-62
2022/12/09 08:11:37;;;;;;;31.80;15.65;;;-1.60;99.90;;;;;;4879519;22;20495;-61
2022/12/09 08:14:06;;;;;;;27.38;15.57;;;-0.80;99.90;;;;;;5050058;28;20044;-61
2022/12/09 08:16:34;;;;;;;28.13;14.10;;;-0.10;99.90;;;;;;5050692;28;20076;-61
2022/12/09 08:19:02;;;;;;;27.85;15.23;;;0.60;99.90;;;;;;5034875;28;20131;-62
2022/12/09 08:21:32;;;;;;;27.02;14.70;;;1.30;99.90;;;;;;5036254;28;20107;-62
2022/12/09 08:24:01;;;;;;;25.40;14.00;;;1.80;99.90;;;;;;5052611;28;20523;-62
2022/12/09 08:26:30;;;;;;;22.25;12.98;;;2.30;99.90;;;;;;5053881;28;20394;-61
2022/12/09 08:28:59;;;;;;;24.67;13.00;;;2.70;99.90;;;;;;5053037;28;20055;-61
2022/12/09 08:31:27;;;;;;;28.48;14.85;;;2.90;99.90;;;;;;5035628;28;20049;-61
2022/12/09 08:33:55;;;;;;;20.80;12.38;;;3.20;99.90;;;;;;5052768;28;20519;-61
2022/12/09 08:36:25;;;;;;;24.27;12.80;;;3.70;99.90;;;;;;5036148;28;20056;-62
2022/12/09 08:38:53;;;;;;;19.85;12.75;;;3.70;99.90;;;;;;5051680;28;20041;-61
2022/12/09 08:41:33;;;;;;;19.52;11.10;;;4.10;99.90;;;;;;5053595;28;20469;-61
2022/12/09 08:44:02;;;;;;;21.67;13.88;;;4.20;99.90;;;;;;5054169;28;20055;-62
2022/12/09 08:46:29;;;;;;;19.77;12.93;;;4.10;99.90;;;;;;5035642;28;20080;-61
2022/12/09 08:48:56;;;;;;;22.17;13.48;;;3.70;99.90;;;;;;5053768;28;20084;-61
2022/12/09 08:51:23;;;;;;;20.70;13.45;;;3.20;99.90;;;;;;5036006;28;20052;-61
2022/12/09 08:53:50;;;;;;;21.35;13.80;;;2.80;99.90;;;;;;5035518;28;20057;-61
2022/12/09 08:56:17;;;;;;;22.77;13.73;;;2.50;99.90;;;;;;5036056;28;20048;-60
2022/12/09 08:58:44;;;;;;;24.63;13.38;;;2.10;99.90;;;;;;5036344;28;20094;-61
2022/12/09 09:01:17;;;;;;;22.27;14.13;;;1.80;99.90;;;;;;5052790;28;20049;-60
2022/12/09 09:03:45;;;;;;;21.23;13.93;;;1.60;99.90;;;;;;5051402;28;20408;-60
2022/12/09 09:06:12;;;;;;;23.02;14.15;;;1.50;99.90;;;;;;5046746;28;20044;-60
2022/12/09 09:08:40;;;;;;;24.42;14.82;;;1.50;99.90;;;;;;5053033;28;20068;-60
2022/12/09 09:11:11;;;;;;;26.25;15.45;;;1.50;99.90;;;;;;5034891;28;20053;-61
2022/12/09 09:13:39;;;;;;;24.30;14.98;;;1.40;99.90;;;;;;5051483;28;20407;-60
2022/12/09 09:16:10;;;;;;;24.48;14.18;;;1.60;99.90;;;;;;5035082;28;20176;-60
2022/12/09 09:18:38;;;;;;;25.73;14.32;;;1.60;99.90;;;;;;5035450;28;20441;-60
2022/12/09 09:21:06;;;;;;;27.48;15.35;;;1.60;99.90;;;;;;5032827;28;20041;-61
2022/12/09 09:23:34;;;;;;;25.55;15.43;;;1.50;99.90;;;;;;5035178;28;20052;-61
2022/12/09 09:26:10;;;;;;;28.02;15.07;;;1.60;99.90;;;;;;5035533;28;20048;-61
2022/12/09 09:28:37;;;;;;;25.20;15.63;;;1.80;99.90;;;;;;5035225;28;20053;-61
2022/12/09 09:31:06;;;;;;;25.50;14.95;;;1.90;99.90;;;;;;5034831;28;20049;-61
2022/12/09 09:33:33;;;;;;;26.63;15.88;;;2.10;99.90;;;;;;5035264;28;20053;-61
2022/12/09 09:36:04;;;;;;;23.90;14.27;;;2.10;99.90;;;;;;5052816;28;20460;-61
2022/12/09 09:38:31;;;;;;;29.27;16.38;;;2.00;99.90;;;;;;5035269;28;20056;-61
2022/12/09 09:41:00;;;;;;;27.23;16.02;;;1.90;99.90;;;;;;5052365;28;20124;-61
2022/12/09 09:43:30;;;;;;;30.20;17.08;;;1.70;99.90;;;;;;5034278;28;20083;-60
2022/12/09 09:45:58;;;;;;;;;;;1.60;99.90;;;;;;5053552;28;20385;-60
2022/12/09 09:48:32;;;;;;;25.00;15.50;;;1.50;99.90;;;;;;5052586;28;19920;-60
2022/12/09 09:51:05;;;;;;;29.30;15.30;;;1.60;99.90;;;;;;5033892;28;20048;-61
2022/12/09 09:53:34;;;;;;;30.10;15.50;;;1.50;99.90;;;;;;5034332;28;20053;-59
2022/12/09 09:56:04;;;;;;;26.45;15.25;;;1.50;99.90;;;;;;5034314;28;20052;-60
2022/12/09 09:58:38;;;;;;;24.25;14.00;;;1.60;99.90;;;;;;5032977;28;20551;-60
2022/12/09 10:01:08;;;;;;;25.85;15.30;;;1.80;99.90;;;;;;5047704;28;20052;-59
2022/12/09 10:03:46;;;;;;;26.92;14.98;;;1.90;99.90;;;;;;5033321;28;20060;-60
2022/12/09 10:06:26;;;;;;;24.67;14.55;;;1.80;99.90;;;;;;5052331;28;20465;-60
2022/12/09 10:08:57;;;;;;;26.30;13.73;;;1.60;99.90;;;;;;5050703;28;20400;-60
2022/12/09 10:11:31;;;;;;;24.63;13.65;;;1.50;99.90;;;;;;5049071;28;20048;-60
2022/12/09 10:14:05;;;;;;;25.45;15.57;;;1.50;99.90;;;;;;5034286;28;20064;-60
2022/12/09 10:16:39;;;;;;;27.83;14.40;;;1.50;99.90;;;;;;5052074;28;20057;-60
2022/12/09 10:19:11;;;;;;;30.60;14.32;;;1.50;99.90;;;;;;5033078;28;20048;-60
2022/12/09 10:21:45;;;;;;;28.55;13.93;;;1.40;99.90;;;;;;5051944;28;20493;-61
2022/12/09 10:24:21;;;;;;;26.27;14.23;;;1.50;99.90;;;;;;5051717;28;20045;-60
2022/12/09 10:26:56;;;;;;;25.88;14.20;;;1.50;99.90;;;;;;5051184;28;20131;-60
2022/12/09 10:29:35;;;;;;;31.98;15.65;;;1.40;99.90;;;;;;5033588;28;20059;-60
2022/12/09 10:32:02;;;;;;;29.10;14.32;;;1.40;99.90;;;;;;5049981;28;20048;-60
2022/12/09 10:34:29;;;;;;;31.30;14.75;;;1.30;99.90;;;;;;5051798;28;20409;-60
2022/12/09 10:36:57;;;;;;;29.38;14.77;;;1.30;99.90;;;;;;5033936;28;20063;-61
2022/12/09 10:39:24;;;;;;;31.38;15.88;;;1.20;99.90;;;;;;5033334;28;20053;-60
2022/12/09 10:44:38;;;;;;;32.42;14.60;;;1.20;99.90;;;;;;5031615;28;20053;-61
2022/12/09 10:47:07;;;;;;;29.02;15.05;;;1.20;99.90;;;;;;5035554;28;20051;-61
2022/12/09 10:49:35;;;;;;;27.50;13.95;;;1.20;99.90;;;;;;5043811;28;20056;-60
2022/12/09 10:52:06;;;;;;;28.38;14.07;;;1.30;99.90;;;;;;5025131;28;20107;-60
2022/12/09 10:54:36;;;;;;;33.55;14.50;;;1.30;99.90;;;;;;5048881;28;20072;-60
2022/12/09 10:57:22;;;;;;;34.57;15.63;;;1.30;99.90;;;;;;5047962;28;20099;-60
2022/12/09 11:00:01;;;;;;;25.17;12.65;;;1.30;99.90;;;;;;5048588;28;20678;-61
2022/12/09 11:02:29;;;;;;;25.48;13.10;;;1.20;99.90;;;;;;5025596;28;20061;-61
2022/12/09 11:05:16;;;;;;;27.30;13.32;;;1.10;99.90;;;;;;5049535;28;20057;-61
2022/12/09 11:07:49;;;;;;;23.67;13.38;;;1.10;99.90;;;;;;5026892;28;20456;-61
2022/12/09 11:10:18;;;;;;;29.60;13.52;;;1.20;99.90;;;;;;5045949;28;20098;-61
2022/12/09 11:12:46;;;;;;;36.80;15.18;;;1.20;99.90;;;;;;5045400;28;20044;-60
2022/12/09 11:15:27;;;;;;;34.63;15.35;;;1.20;99.90;;;;;;5028890;28;20103;-60
2022/12/09 11:17:57;;;;;;;43.17;15.40;;;1.20;99.90;;;;;;5043352;28;20061;-60
2022/12/09 11:20:28;;;;;;;38.60;15.50;;;1.30;99.90;;;;;;5047533;28;20131;-61
2022/12/09 11:23:03;;;;;;;35.92;15.43;;;1.30;99.90;;;;;;5048101;28;20396;-60
2022/12/09 11:25:32;;;;;;;36.75;15.68;;;1.20;99.90;;;;;;5026801;28;20084;-61
2022/12/09 11:28:00;;;;;;;26.95;14.13;;;1.10;99.90;;;;;;5024053;28;20049;-61
2022/12/09 11:30:30;;;;;;;31.02;16.73;;;1.10;99.90;;;;;;5049536;28;20049;-61
2022/12/09 11:33:00;;;;;;;30.15;16.10;;;1.10;99.90;;;;;;5029091;28;20530;-62
2022/12/09 11:35:36;;;;;;;34.00;16.77;;;1.10;99.90;;;;;;5025627;28;20053;-61
2022/12/09 11:38:16;;;;;;;28.83;15.55;;;1.00;99.90;;;;;;5025882;28;20056;-60
2022/12/09 11:40:44;;;;;;;27.55;15.35;;;1.00;99.90;;;;;;5042407;28;20044;-61
2022/12/09 11:43:11;;;;;;;31.65;16.40;;;0.90;99.90;;;;;;5026261;28;20049;-61
2022/12/09 11:45:40;;;;;;;28.40;15.30;;;1.00;99.90;;;;;;5036529;28;20052;-60
2022/12/09 11:48:15;;;;;;;30.13;17.65;;;1.00;99.90;;;;;;5032662;28;20510;-60
2022/12/09 11:50:50;;;;;;;26.85;15.98;;;1.00;99.90;;;;;;5048262;28;20512;-60
2022/12/09 11:53:27;;;;;;;29.65;16.45;;;1.00;99.90;;;;;;5036365;28;20053;-61
2022/12/09 11:55:59;;;;;;;38.17;17.65;;;1.00;99.90;;;;;;5047252;28;20488;-60
2022/12/09 11:58:29;;;;;;;40.58;17.27;;;1.10;99.90;;;;;;5054776;28;20049;-61
2022/12/09 12:01:00;;;;;;;53.08;17.63;;;1.10;99.90;;;;;;5036884;28;20098;-60
2022/12/09 12:03:36;;;;;;;41.50;17.55;;;1.10;99.90;;;;;;5052238;28;20461;-60
2022/12/09 12:06:06;;;;;;;34.97;17.15;;;1.10;99.90;;;;;;5032825;28;20060;-60
2022/12/09 12:08:42;;;;;;;28.58;15.88;;;1.10;99.90;;;;;;5036088;28;20060;-61
2022/12/09 12:11:12;;;;;;;38.20;16.60;;;1.20;99.90;;;;;;5053730;28;20071;-60
2022/12/09 12:13:43;;;;;;;24.67;15.43;;;1.10;99.90;;;;;;5036415;28;20407;-60
2022/12/09 12:16:15;;;;;;;29.35;17.35;;;1.20;99.90;;;;;;5054628;28;20275;-60
2022/12/09 12:18:48;;;;;;;26.92;16.15;;;1.20;99.90;;;;;;5052403;28;20063;-61
2022/12/09 12:21:37;;;;;;;33.53;17.63;;;1.30;99.90;;;;;;5052182;28;20037;-61
2022/12/09 12:24:24;;;;;;;30.65;17.20;;;1.30;99.90;;;;;;5035453;28;20056;-60
2022/12/09 12:27:03;;;;;;;30.30;16.58;;;1.30;99.90;;;;;;5054636;28;20056;-60
2022/12/09 12:29:41;;;;;;;29.92;16.40;;;1.30;99.90;;;;;;5051822;28;20420;-60
2022/12/09 12:32:24;;;;;;;35.33;17.70;;;1.20;99.90;;;;;;5035631;28;20040;-61
2022/12/09 12:35:02;;;;;;;30.40;16.38;;;1.20;99.90;;;;;;5034836;28;20049;-60
2022/12/09 12:37:42;;;;;;;33.42;17.05;;;1.20;99.90;;;;;;5035516;28;20057;-60
2022/12/09 12:40:25;;;;;;;32.72;17.85;;;1.10;99.90;;;;;;5052385;28;20067;-60
2022/12/09 12:48:51;;;;;;;36.20;16.67;;;1.00;99.90;;;;;;5034013;28;20074;-60
2022/12/09 12:51:31;;;;;;;27.95;15.82;;;0.90;99.90;;;;;;5035586;28;20051;-60
2022/12/09 12:54:14;;;;;;;30.50;16.50;;;0.90;99.90;;;;;;5051989;28;20048;-60
2022/12/09 12:56:47;;;;;;;28.40;15.55;;;0.90;99.90;;;;;;5034558;28;20053;-61
2022/12/09 12:59:22;;;;;;;31.38;17.33;;;0.90;99.90;;;;;;5050821;28;20106;-60